sensor_id;sensor_type;location;lat;lon;timestamp;P1;durP1;ratioP1;P2;durP2;ratioP2
45136;SDS011;30894;51.740;19.498;2023-01-24T00:00:52;16.17;;;5.57;;
45136;SDS011;30894;51.740;19.498;2023-01-24T00:03:21;11.55;;;5.90;;
45136;SDS011;30894;51.740;19.498;2023-01-24T00:05:48;20.27;;;6.97;;
45136;SDS011;30894;51.740;19.498;2023-01-24T00:08:15;17.05;;;8.50;;
45136;SDS011;30894;51.740;19.498;2023-01-24T00:10:46;13.05;;;6.97;;
45136;SDS011;30894;51.740;19.498;2023-01-24T00:13:15;20.27;;;5.82;;
45136;SDS011;30894;51.740;19.498;2023-01-24T00:15:42;10.18;;;5.57;;
45136;SDS011;30894;51.740;19.498;2023-01-24T00:18:08;25.63;;;8.27;;
45136;SDS011;30894;51.740;19.498;2023-01-24T00:20:34;19.00;;;6.45;;
45136;SDS011;30894;51.740;19.498;2023-01-24T00:23:00;8.75;;;4.78;;
45136;SDS011;30894;51.740;19.498;2023-01-24T00:25:27;16.65;;;5.30;;
45136;SDS011;30894;51.740;19.498;2023-01-24T00:27:53;19.80;;;6.10;;
45136;SDS011;30894;51.740;19.498;2023-01-24T00:30:19;12.32;;;7.10;;
45136;SDS011;30894;51.740;19.498;2023-01-24T00:32:45;15.07;;;6.07;;
45136;SDS011;30894;51.740;19.498;2023-01-24T00:35:12;22.70;;;6.53;;
45136;SDS011;30894;51.740;19.498;2023-01-24T00:37:39;12.77;;;6.47;;
45136;SDS011;30894;51.740;19.498;2023-01-24T00:40:07;9.90;;;5.60;;
45136;SDS011;30894;51.740;19.498;2023-01-24T00:42:34;15.25;;;6.15;;
45136;SDS011;30894;51.740;19.498;2023-01-24T00:45:00;13.85;;;7.50;;
45136;SDS011;30894;51.740;19.498;2023-01-24T00:47:26;18.50;;;7.80;;
45136;SDS011;30894;51.740;19.498;2023-01-24T00:49:53;25.15;;;6.80;;
45136;SDS011;30894;51.740;19.498;2023-01-24T00:52:19;11.63;;;5.38;;
45136;SDS011;30894;51.740;19.498;2023-01-24T00:54:45;15.40;;;5.28;;
45136;SDS011;30894;51.740;19.498;2023-01-24T00:57:11;18.40;;;6.72;;
45136;SDS011;30894;51.740;19.498;2023-01-24T00:59:39;16.20;;;7.28;;
45136;SDS011;30894;51.740;19.498;2023-01-24T01:02:06;11.88;;;5.15;;
45136;SDS011;30894;51.740;19.498;2023-01-24T01:04:33;30.08;;;6.78;;
45136;SDS011;30894;51.740;19.498;2023-01-24T01:06:58;19.65;;;7.57;;
45136;SDS011;30894;51.740;19.498;2023-01-24T01:09:25;13.82;;;7.15;;
45136;SDS011;30894;51.740;19.498;2023-01-24T01:11:51;24.15;;;7.57;;
45136;SDS011;30894;51.740;19.498;2023-01-24T01:14:21;23.55;;;7.05;;
45136;SDS011;30894;51.740;19.498;2023-01-24T01:16:47;12.70;;;6.65;;
45136;SDS011;30894;51.740;19.498;2023-01-24T01:19:13;16.55;;;7.25;;
45136;SDS011;30894;51.740;19.498;2023-01-24T01:21:39;11.30;;;6.53;;
45136;SDS011;30894;51.740;19.498;2023-01-24T01:24:10;18.27;;;6.28;;
45136;SDS011;30894;51.740;19.498;2023-01-24T01:26:36;20.30;;;6.45;;
45136;SDS011;30894;51.740;19.498;2023-01-24T01:29:02;20.50;;;7.75;;
45136;SDS011;30894;51.740;19.498;2023-01-24T01:31:28;10.25;;;7.13;;
45136;SDS011;30894;51.740;19.498;2023-01-24T01:33:54;13.20;;;5.60;;
45136;SDS011;30894;51.740;19.498;2023-01-24T01:36:20;14.63;;;4.60;;
45136;SDS011;30894;51.740;19.498;2023-01-24T01:38:47;19.10;;;4.50;;
45136;SDS011;30894;51.740;19.498;2023-01-24T01:41:13;10.85;;;6.50;;
45136;SDS011;30894;51.740;19.498;2023-01-24T01:43:40;7.35;;;4.35;;
45136;SDS011;30894;51.740;19.498;2023-01-24T01:46:26;15.65;;;5.28;;
45136;SDS011;30894;51.740;19.498;2023-01-24T01:49:02;20.15;;;5.28;;
45136;SDS011;30894;51.740;19.498;2023-01-24T01:51:32;13.77;;;8.48;;
45136;SDS011;30894;51.740;19.498;2023-01-24T01:54:10;13.60;;;6.43;;
45136;SDS011;30894;51.740;19.498;2023-01-24T01:56:46;6.38;;;5.32;;
45136;SDS011;30894;51.740;19.498;2023-01-24T01:59:25;18.40;;;6.68;;
45136;SDS011;30894;51.740;19.498;2023-01-24T02:01:56;18.55;;;7.13;;
45136;SDS011;30894;51.740;19.498;2023-01-24T02:04:26;11.30;;;4.80;;
45136;SDS011;30894;51.740;19.498;2023-01-24T02:09:37;15.38;;;5.45;;
45136;SDS011;30894;51.740;19.498;2023-01-24T02:12:09;9.70;;;5.13;;
45136;SDS011;30894;51.740;19.498;2023-01-24T02:14:39;10.52;;;5.75;;
45136;SDS011;30894;51.740;19.498;2023-01-24T02:17:24;15.85;;;6.22;;
45136;SDS011;30894;51.740;19.498;2023-01-24T02:19:57;18.42;;;6.03;;
45136;SDS011;30894;51.740;19.498;2023-01-24T02:22:56;16.55;;;6.72;;
45136;SDS011;30894;51.740;19.498;2023-01-24T02:25:50;12.40;;;6.90;;
45136;SDS011;30894;51.740;19.498;2023-01-24T02:31:23;8.70;;;5.00;;
45136;SDS011;30894;51.740;19.498;2023-01-24T02:33:49;13.25;;;6.15;;
45136;SDS011;30894;51.740;19.498;2023-01-24T02:36:20;18.42;;;7.57;;
45136;SDS011;30894;51.740;19.498;2023-01-24T02:39:04;23.95;;;8.68;;
45136;SDS011;30894;51.740;19.498;2023-01-24T02:41:51;16.92;;;8.30;;
45136;SDS011;30894;51.740;19.498;2023-01-24T02:44:24;14.70;;;5.20;;
45136;SDS011;30894;51.740;19.498;2023-01-24T02:47:29;9.43;;;5.47;;
45136;SDS011;30894;51.740;19.498;2023-01-24T02:50:00;17.42;;;6.95;;
45136;SDS011;30894;51.740;19.498;2023-01-24T02:52:28;10.85;;;5.30;;
45136;SDS011;30894;51.740;19.498;2023-01-24T02:55:13;13.10;;;5.65;;
45136;SDS011;30894;51.740;19.498;2023-01-24T02:57:40;16.67;;;7.03;;
45136;SDS011;30894;51.740;19.498;2023-01-24T03:00:24;22.95;;;9.52;;
45136;SDS011;30894;51.740;19.498;2023-01-24T03:02:51;12.18;;;6.60;;
45136;SDS011;30894;51.740;19.498;2023-01-24T03:05:17;14.50;;;7.93;;
45136;SDS011;30894;51.740;19.498;2023-01-24T03:07:43;12.45;;;6.05;;
45136;SDS011;30894;51.740;19.498;2023-01-24T03:10:16;15.95;;;7.50;;
45136;SDS011;30894;51.740;19.498;2023-01-24T03:12:44;21.48;;;9.02;;
45136;SDS011;30894;51.740;19.498;2023-01-24T03:15:28;14.63;;;5.72;;
45136;SDS011;30894;51.740;19.498;2023-01-24T03:18:15;15.98;;;5.82;;
45136;SDS011;30894;51.740;19.498;2023-01-24T03:20:59;25.05;;;7.47;;
45136;SDS011;30894;51.740;19.498;2023-01-24T03:23:44;12.40;;;5.75;;
45136;SDS011;30894;51.740;19.498;2023-01-24T03:29:13;17.05;;;6.35;;
45136;SDS011;30894;51.740;19.498;2023-01-24T03:31:57;17.30;;;6.05;;
45136;SDS011;30894;51.740;19.498;2023-01-24T03:34:42;15.02;;;6.70;;
45136;SDS011;30894;51.740;19.498;2023-01-24T03:37:14;15.82;;;5.95;;
45136;SDS011;30894;51.740;19.498;2023-01-24T03:40:06;9.60;;;5.65;;
45136;SDS011;30894;51.740;19.498;2023-01-24T03:42:35;13.65;;;5.65;;
45136;SDS011;30894;51.740;19.498;2023-01-24T03:45:17;28.88;;;7.18;;
45136;SDS011;30894;51.740;19.498;2023-01-24T03:47:52;11.20;;;5.40;;
45136;SDS011;30894;51.740;19.498;2023-01-24T03:50:36;22.67;;;6.78;;
45136;SDS011;30894;51.740;19.498;2023-01-24T03:53:24;18.02;;;7.63;;
45136;SDS011;30894;51.740;19.498;2023-01-24T03:55:53;13.18;;;7.22;;
45136;SDS011;30894;51.740;19.498;2023-01-24T03:58:22;12.18;;;5.97;;
45136;SDS011;30894;51.740;19.498;2023-01-24T04:00:49;17.00;;;7.95;;
45136;SDS011;30894;51.740;19.498;2023-01-24T04:03:16;26.35;;;9.95;;
45136;SDS011;30894;51.740;19.498;2023-01-24T04:05:42;15.57;;;6.65;;
45136;SDS011;30894;51.740;19.498;2023-01-24T04:08:09;16.83;;;6.43;;
45136;SDS011;30894;51.740;19.498;2023-01-24T04:10:37;10.07;;;5.45;;
45136;SDS011;30894;51.740;19.498;2023-01-24T04:13:03;12.75;;;4.75;;
45136;SDS011;30894;51.740;19.498;2023-01-24T04:15:30;8.30;;;4.57;;
45136;SDS011;30894;51.740;19.498;2023-01-24T04:17:58;16.40;;;8.32;;
45136;SDS011;30894;51.740;19.498;2023-01-24T04:20:27;19.95;;;6.07;;
45136;SDS011;30894;51.740;19.498;2023-01-24T04:22:56;13.75;;;5.22;;
45136;SDS011;30894;51.740;19.498;2023-01-24T04:25:25;21.05;;;6.63;;
45136;SDS011;30894;51.740;19.498;2023-01-24T04:27:51;17.80;;;5.60;;
45136;SDS011;30894;51.740;19.498;2023-01-24T04:30:25;20.17;;;7.35;;
45136;SDS011;30894;51.740;19.498;2023-01-24T04:32:54;14.73;;;7.22;;
45136;SDS011;30894;51.740;19.498;2023-01-24T04:35:22;12.80;;;5.43;;
45136;SDS011;30894;51.740;19.498;2023-01-24T04:37:56;16.75;;;6.00;;
45136;SDS011;30894;51.740;19.498;2023-01-24T04:40:28;10.52;;;5.28;;
45136;SDS011;30894;51.740;19.498;2023-01-24T04:42:55;20.30;;;7.65;;
45136;SDS011;30894;51.740;19.498;2023-01-24T04:45:23;23.80;;;10.57;;
45136;SDS011;30894;51.740;19.498;2023-01-24T04:47:50;11.32;;;6.90;;
45136;SDS011;30894;51.740;19.498;2023-01-24T04:50:16;20.83;;;7.60;;
45136;SDS011;30894;51.740;19.498;2023-01-24T04:52:42;14.82;;;6.80;;
45136;SDS011;30894;51.740;19.498;2023-01-24T04:55:12;16.13;;;7.70;;
45136;SDS011;30894;51.740;19.498;2023-01-24T04:57:47;14.27;;;6.05;;
45136;SDS011;30894;51.740;19.498;2023-01-24T05:00:13;21.50;;;7.28;;
45136;SDS011;30894;51.740;19.498;2023-01-24T05:02:40;22.73;;;9.07;;
45136;SDS011;30894;51.740;19.498;2023-01-24T05:05:07;14.38;;;5.65;;
45136;SDS011;30894;51.740;19.498;2023-01-24T05:07:33;20.73;;;7.65;;
45136;SDS011;30894;51.740;19.498;2023-01-24T05:10:00;15.15;;;5.10;;
45136;SDS011;30894;51.740;19.498;2023-01-24T05:12:26;24.40;;;7.53;;
45136;SDS011;30894;51.740;19.498;2023-01-24T05:14:52;22.02;;;7.90;;
45136;SDS011;30894;51.740;19.498;2023-01-24T05:17:19;19.55;;;8.43;;
45136;SDS011;30894;51.740;19.498;2023-01-24T05:20:07;27.40;;;7.82;;
45136;SDS011;30894;51.740;19.498;2023-01-24T05:22:39;21.92;;;7.35;;
45136;SDS011;30894;51.740;19.498;2023-01-24T05:25:05;19.70;;;7.65;;
45136;SDS011;30894;51.740;19.498;2023-01-24T05:27:32;23.25;;;7.40;;
45136;SDS011;30894;51.740;19.498;2023-01-24T05:30:19;11.23;;;5.18;;
45136;SDS011;30894;51.740;19.498;2023-01-24T05:32:46;15.15;;;5.88;;
45136;SDS011;30894;51.740;19.498;2023-01-24T05:35:13;19.15;;;6.28;;
45136;SDS011;30894;51.740;19.498;2023-01-24T05:37:39;16.48;;;6.85;;
45136;SDS011;30894;51.740;19.498;2023-01-24T05:40:06;13.73;;;4.65;;
45136;SDS011;30894;51.740;19.498;2023-01-24T05:42:54;17.73;;;7.65;;
45136;SDS011;30894;51.740;19.498;2023-01-24T05:45:32;15.43;;;6.03;;
45136;SDS011;30894;51.740;19.498;2023-01-24T05:47:58;23.65;;;7.38;;
45136;SDS011;30894;51.740;19.498;2023-01-24T05:50:25;22.27;;;7.38;;
45136;SDS011;30894;51.740;19.498;2023-01-24T05:52:51;13.43;;;7.28;;
45136;SDS011;30894;51.740;19.498;2023-01-24T05:55:17;15.75;;;6.47;;
45136;SDS011;30894;51.740;19.498;2023-01-24T05:57:43;22.42;;;6.82;;
45136;SDS011;30894;51.740;19.498;2023-01-24T06:00:10;19.27;;;8.63;;
45136;SDS011;30894;51.740;19.498;2023-01-24T06:02:36;24.30;;;7.53;;
45136;SDS011;30894;51.740;19.498;2023-01-24T06:05:03;16.73;;;6.82;;
45136;SDS011;30894;51.740;19.498;2023-01-24T06:07:30;19.27;;;7.07;;
45136;SDS011;30894;51.740;19.498;2023-01-24T06:09:57;19.20;;;8.65;;
45136;SDS011;30894;51.740;19.498;2023-01-24T06:12:26;20.83;;;7.38;;
45136;SDS011;30894;51.740;19.498;2023-01-24T06:14:52;25.63;;;9.15;;
45136;SDS011;30894;51.740;19.498;2023-01-24T06:17:18;20.50;;;9.35;;
45136;SDS011;30894;51.740;19.498;2023-01-24T06:19:47;15.00;;;6.50;;
45136;SDS011;30894;51.740;19.498;2023-01-24T06:22:48;12.02;;;6.10;;
45136;SDS011;30894;51.740;19.498;2023-01-24T06:25:40;11.15;;;6.55;;
45136;SDS011;30894;51.740;19.498;2023-01-24T06:28:07;27.42;;;10.75;;
45136;SDS011;30894;51.740;19.498;2023-01-24T06:30:35;16.65;;;7.13;;
45136;SDS011;30894;51.740;19.498;2023-01-24T06:33:21;21.40;;;9.02;;
45136;SDS011;30894;51.740;19.498;2023-01-24T06:39:14;26.25;;;9.98;;
45136;SDS011;30894;51.740;19.498;2023-01-24T06:41:45;15.00;;;7.80;;
45136;SDS011;30894;51.740;19.498;2023-01-24T06:44:12;14.30;;;6.28;;
45136;SDS011;30894;51.740;19.498;2023-01-24T06:46:38;20.45;;;7.43;;
45136;SDS011;30894;51.740;19.498;2023-01-24T06:49:04;16.15;;;6.20;;
45136;SDS011;30894;51.740;19.498;2023-01-24T06:51:31;15.38;;;7.80;;
45136;SDS011;30894;51.740;19.498;2023-01-24T06:54:07;16.17;;;5.80;;
45136;SDS011;30894;51.740;19.498;2023-01-24T06:56:33;19.73;;;7.18;;
45136;SDS011;30894;51.740;19.498;2023-01-24T06:59:01;19.52;;;6.78;;
45136;SDS011;30894;51.740;19.498;2023-01-24T07:01:27;19.23;;;8.38;;
45136;SDS011;30894;51.740;19.498;2023-01-24T07:04:00;18.38;;;6.20;;
45136;SDS011;30894;51.740;19.498;2023-01-24T07:06:28;14.55;;;6.70;;
45136;SDS011;30894;51.740;19.498;2023-01-24T07:08:54;26.77;;;8.30;;
45136;SDS011;30894;51.740;19.498;2023-01-24T07:11:20;22.58;;;7.63;;
45136;SDS011;30894;51.740;19.498;2023-01-24T07:14:10;15.32;;;7.45;;
45136;SDS011;30894;51.740;19.498;2023-01-24T07:16:59;22.83;;;6.78;;
45136;SDS011;30894;51.740;19.498;2023-01-24T07:19:26;25.10;;;8.48;;
45136;SDS011;30894;51.740;19.498;2023-01-24T07:21:53;24.52;;;10.18;;
45136;SDS011;30894;51.740;19.498;2023-01-24T07:24:23;23.52;;;11.80;;
45136;SDS011;30894;51.740;19.498;2023-01-24T07:26:55;29.25;;;12.48;;
45136;SDS011;30894;51.740;19.498;2023-01-24T07:29:25;22.65;;;9.57;;
45136;SDS011;30894;51.740;19.498;2023-01-24T07:31:54;19.08;;;7.22;;
45136;SDS011;30894;51.740;19.498;2023-01-24T07:34:23;19.15;;;9.02;;
45136;SDS011;30894;51.740;19.498;2023-01-24T07:36:49;20.50;;;7.78;;
45136;SDS011;30894;51.740;19.498;2023-01-24T07:39:21;17.05;;;5.68;;
45136;SDS011;30894;51.740;19.498;2023-01-24T07:41:47;20.73;;;9.68;;
45136;SDS011;30894;51.740;19.498;2023-01-24T07:44:17;26.27;;;9.90;;
45136;SDS011;30894;51.740;19.498;2023-01-24T07:46:45;15.65;;;9.02;;
45136;SDS011;30894;51.740;19.498;2023-01-24T07:49:11;12.48;;;7.15;;
45136;SDS011;30894;51.740;19.498;2023-01-24T07:51:39;18.70;;;8.85;;
45136;SDS011;30894;51.740;19.498;2023-01-24T07:54:09;20.60;;;9.40;;
45136;SDS011;30894;51.740;19.498;2023-01-24T07:56:43;21.67;;;7.95;;
45136;SDS011;30894;51.740;19.498;2023-01-24T07:59:09;27.02;;;11.52;;
45136;SDS011;30894;51.740;19.498;2023-01-24T08:01:45;20.45;;;8.40;;
45136;SDS011;30894;51.740;19.498;2023-01-24T08:04:14;25.38;;;10.85;;
45136;SDS011;30894;51.740;19.498;2023-01-24T08:06:40;26.65;;;10.05;;
45136;SDS011;30894;51.740;19.498;2023-01-24T08:09:51;20.85;;;6.95;;
45136;SDS011;30894;51.740;19.498;2023-01-24T08:12:20;20.77;;;7.88;;
45136;SDS011;30894;51.740;19.498;2023-01-24T08:14:47;13.18;;;6.78;;
45136;SDS011;30894;51.740;19.498;2023-01-24T08:17:14;15.52;;;7.05;;
45136;SDS011;30894;51.740;19.498;2023-01-24T08:19:41;22.67;;;8.90;;
45136;SDS011;30894;51.740;19.498;2023-01-24T08:22:09;15.35;;;8.02;;
45136;SDS011;30894;51.740;19.498;2023-01-24T08:24:45;21.67;;;7.95;;
45136;SDS011;30894;51.740;19.498;2023-01-24T08:27:12;38.10;;;16.25;;
45136;SDS011;30894;51.740;19.498;2023-01-24T08:29:38;35.97;;;15.88;;
45136;SDS011;30894;51.740;19.498;2023-01-24T08:32:08;31.60;;;13.70;;
45136;SDS011;30894;51.740;19.498;2023-01-24T08:34:38;23.83;;;9.73;;
45136;SDS011;30894;51.740;19.498;2023-01-24T08:37:07;29.25;;;11.45;;
45136;SDS011;30894;51.740;19.498;2023-01-24T08:39:33;31.95;;;10.68;;
45136;SDS011;30894;51.740;19.498;2023-01-24T08:42:00;31.20;;;9.80;;
45136;SDS011;30894;51.740;19.498;2023-01-24T08:44:26;29.73;;;8.45;;
45136;SDS011;30894;51.740;19.498;2023-01-24T08:46:54;26.50;;;8.63;;
45136;SDS011;30894;51.740;19.498;2023-01-24T08:49:21;20.13;;;9.25;;
45136;SDS011;30894;51.740;19.498;2023-01-24T08:51:48;25.52;;;9.57;;
45136;SDS011;30894;51.740;19.498;2023-01-24T08:54:15;19.98;;;8.20;;
45136;SDS011;30894;51.740;19.498;2023-01-24T08:56:42;27.08;;;8.52;;
45136;SDS011;30894;51.740;19.498;2023-01-24T08:59:09;26.75;;;10.65;;
45136;SDS011;30894;51.740;19.498;2023-01-24T09:01:37;25.88;;;9.68;;
45136;SDS011;30894;51.740;19.498;2023-01-24T09:04:07;25.65;;;10.13;;
45136;SDS011;30894;51.740;19.498;2023-01-24T09:06:36;27.83;;;10.13;;
45136;SDS011;30894;51.740;19.498;2023-01-24T09:09:03;26.77;;;9.70;;
45136;SDS011;30894;51.740;19.498;2023-01-24T09:11:55;25.83;;;12.40;;
45136;SDS011;30894;51.740;19.498;2023-01-24T09:14:22;26.30;;;9.63;;
45136;SDS011;30894;51.740;19.498;2023-01-24T09:16:50;27.08;;;9.35;;
45136;SDS011;30894;51.740;19.498;2023-01-24T09:19:17;21.63;;;9.70;;
45136;SDS011;30894;51.740;19.498;2023-01-24T09:21:43;31.20;;;10.43;;
45136;SDS011;30894;51.740;19.498;2023-01-24T09:24:17;27.63;;;10.07;;
45136;SDS011;30894;51.740;19.498;2023-01-24T09:26:45;18.30;;;7.68;;
45136;SDS011;30894;51.740;19.498;2023-01-24T09:29:11;23.17;;;8.43;;
45136;SDS011;30894;51.740;19.498;2023-01-24T09:31:38;27.42;;;9.43;;
45136;SDS011;30894;51.740;19.498;2023-01-24T09:34:07;28.67;;;9.70;;
45136;SDS011;30894;51.740;19.498;2023-01-24T09:37:09;23.30;;;9.20;;
45136;SDS011;30894;51.740;19.498;2023-01-24T09:42:38;28.60;;;9.55;;
45136;SDS011;30894;51.740;19.498;2023-01-24T09:45:21;30.08;;;11.85;;
45136;SDS011;30894;51.740;19.498;2023-01-24T09:50:47;25.02;;;9.40;;
45136;SDS011;30894;51.740;19.498;2023-01-24T09:53:25;25.25;;;10.45;;
45136;SDS011;30894;51.740;19.498;2023-01-24T09:55:57;25.35;;;9.90;;
45136;SDS011;30894;51.740;19.498;2023-01-24T09:58:39;26.60;;;10.38;;
45136;SDS011;30894;51.740;19.498;2023-01-24T10:01:12;27.85;;;9.18;;
45136;SDS011;30894;51.740;19.498;2023-01-24T10:03:52;22.73;;;7.75;;
45136;SDS011;30894;51.740;19.498;2023-01-24T10:06:22;20.70;;;7.97;;
45136;SDS011;30894;51.740;19.498;2023-01-24T10:08:56;18.30;;;7.35;;
45136;SDS011;30894;51.740;19.498;2023-01-24T10:17:41;25.40;;;9.77;;
45136;SDS011;30894;51.740;19.498;2023-01-24T10:23:28;25.92;;;8.77;;
45136;SDS011;30894;51.740;19.498;2023-01-24T10:29:22;20.77;;;7.15;;
45136;SDS011;30894;51.740;19.498;2023-01-24T10:39:58;22.52;;;9.02;;
45136;SDS011;30894;51.740;19.498;2023-01-24T10:42:28;25.63;;;9.23;;
45136;SDS011;30894;51.740;19.498;2023-01-24T10:48:39;30.33;;;10.32;;
45136;SDS011;30894;51.740;19.498;2023-01-24T10:51:20;29.52;;;11.60;;
45136;SDS011;30894;51.740;19.498;2023-01-24T10:58:27;29.38;;;9.50;;
45136;SDS011;30894;51.740;19.498;2023-01-24T11:01:18;23.08;;;8.68;;
45136;SDS011;30894;51.740;19.498;2023-01-24T11:03:54;22.05;;;10.27;;
45136;SDS011;30894;51.740;19.498;2023-01-24T11:06:31;27.17;;;10.30;;
45136;SDS011;30894;51.740;19.498;2023-01-24T11:09:33;35.95;;;9.48;;
45136;SDS011;30894;51.740;19.498;2023-01-24T11:12:12;28.60;;;10.38;;
45136;SDS011;30894;51.740;19.498;2023-01-24T11:14:50;23.52;;;9.15;;
45136;SDS011;30894;51.740;19.498;2023-01-24T11:17:36;29.45;;;9.98;;
45136;SDS011;30894;51.740;19.498;2023-01-24T11:20:26;27.42;;;10.90;;
45136;SDS011;30894;51.740;19.498;2023-01-24T11:26:06;26.70;;;9.73;;
45136;SDS011;30894;51.740;19.498;2023-01-24T11:28:59;20.13;;;7.50;;
45136;SDS011;30894;51.740;19.498;2023-01-24T11:31:43;30.45;;;11.25;;
45136;SDS011;30894;51.740;19.498;2023-01-24T11:44:36;35.63;;;11.02;;
45136;SDS011;30894;51.740;19.498;2023-01-24T11:48:21;29.45;;;10.73;;
45136;SDS011;30894;51.740;19.498;2023-01-24T11:51:09;30.67;;;11.05;;
45136;SDS011;30894;51.740;19.498;2023-01-24T11:57:59;40.30;;;12.20;;
45136;SDS011;30894;51.740;19.498;2023-01-24T12:00:56;33.03;;;11.45;;
45136;SDS011;30894;51.740;19.498;2023-01-24T12:07:11;34.80;;;11.65;;
45136;SDS011;30894;51.740;19.498;2023-01-24T12:13:54;28.77;;;9.85;;
45136;SDS011;30894;51.740;19.498;2023-01-24T12:16:53;34.15;;;12.68;;
45136;SDS011;30894;51.740;19.498;2023-01-24T12:22:27;36.03;;;10.93;;
45136;SDS011;30894;51.740;19.498;2023-01-24T12:25:02;33.53;;;11.93;;
45136;SDS011;30894;51.740;19.498;2023-01-24T12:28:06;38.25;;;11.48;;
45136;SDS011;30894;51.740;19.498;2023-01-24T12:30:44;39.67;;;12.68;;
45136;SDS011;30894;51.740;19.498;2023-01-24T12:35:51;30.03;;;10.93;;
45136;SDS011;30894;51.740;19.498;2023-01-24T12:38:45;31.08;;;10.60;;
45136;SDS011;30894;51.740;19.498;2023-01-24T12:44:22;29.95;;;11.02;;
45136;SDS011;30894;51.740;19.498;2023-01-24T12:49:53;37.58;;;11.75;;
45136;SDS011;30894;51.740;19.498;2023-01-24T12:58:29;31.67;;;10.52;;
45136;SDS011;30894;51.740;19.498;2023-01-24T13:13:13;27.45;;;11.65;;
45136;SDS011;30894;51.740;19.498;2023-01-24T13:31:56;30.80;;;11.23;;
45136;SDS011;30894;51.740;19.498;2023-01-24T13:34:42;40.17;;;12.27;;
45136;SDS011;30894;51.740;19.498;2023-01-24T13:37:17;42.33;;;14.35;;
45136;SDS011;30894;51.740;19.498;2023-01-24T13:43:02;32.60;;;11.98;;
45136;SDS011;30894;51.740;19.498;2023-01-24T13:46:07;24.65;;;9.55;;
45136;SDS011;30894;51.740;19.498;2023-01-24T13:53:59;43.53;;;13.02;;
45136;SDS011;30894;51.740;19.498;2023-01-24T13:59:33;29.25;;;11.55;;
45136;SDS011;30894;51.740;19.498;2023-01-24T14:18:50;31.25;;;11.88;;
45136;SDS011;30894;51.740;19.498;2023-01-24T14:24:33;32.30;;;11.95;;
45136;SDS011;30894;51.740;19.498;2023-01-24T14:27:37;23.08;;;9.30;;
45136;SDS011;30894;51.740;19.498;2023-01-24T14:32:51;26.90;;;12.38;;
45136;SDS011;30894;51.740;19.498;2023-01-24T14:35:51;39.08;;;12.90;;
45136;SDS011;30894;51.740;19.498;2023-01-24T14:38:35;32.15;;;11.10;;
45136;SDS011;30894;51.740;19.498;2023-01-24T14:41:20;31.20;;;10.45;;
45136;SDS011;30894;51.740;19.498;2023-01-24T14:43:49;29.08;;;10.50;;
45136;SDS011;30894;51.740;19.498;2023-01-24T14:46:20;37.83;;;11.10;;
45136;SDS011;30894;51.740;19.498;2023-01-24T14:48:49;26.55;;;11.07;;
45136;SDS011;30894;51.740;19.498;2023-01-24T14:51:18;27.95;;;10.57;;
45136;SDS011;30894;51.740;19.498;2023-01-24T14:53:51;34.67;;;11.45;;
45136;SDS011;30894;51.740;19.498;2023-01-24T14:56:22;38.92;;;11.32;;
45136;SDS011;30894;51.740;19.498;2023-01-24T14:58:49;34.42;;;11.88;;
45136;SDS011;30894;51.740;19.498;2023-01-24T15:01:29;32.85;;;11.27;;
45136;SDS011;30894;51.740;19.498;2023-01-24T15:04:28;38.03;;;12.70;;
45136;SDS011;30894;51.740;19.498;2023-01-24T15:07:11;30.88;;;11.30;;
45136;SDS011;30894;51.740;19.498;2023-01-24T15:09:41;24.48;;;10.77;;
45136;SDS011;30894;51.740;19.498;2023-01-24T15:12:31;34.92;;;12.07;;
45136;SDS011;30894;51.740;19.498;2023-01-24T15:15:05;37.47;;;11.60;;
45136;SDS011;30894;51.740;19.498;2023-01-24T15:17:34;31.23;;;13.75;;
45136;SDS011;30894;51.740;19.498;2023-01-24T15:20:08;39.25;;;14.48;;
45136;SDS011;30894;51.740;19.498;2023-01-24T15:22:49;37.00;;;12.48;;
45136;SDS011;30894;51.740;19.498;2023-01-24T15:25:27;36.63;;;13.27;;
45136;SDS011;30894;51.740;19.498;2023-01-24T15:28:08;33.42;;;11.90;;
45136;SDS011;30894;51.740;19.498;2023-01-24T15:30:54;41.33;;;12.60;;
45136;SDS011;30894;51.740;19.498;2023-01-24T15:33:41;26.52;;;11.63;;
45136;SDS011;30894;51.740;19.498;2023-01-24T15:39:03;54.10;;;16.88;;
45136;SDS011;30894;51.740;19.498;2023-01-24T15:42:22;51.50;;;17.80;;
45136;SDS011;30894;51.740;19.498;2023-01-24T15:45:14;37.17;;;14.65;;
45136;SDS011;30894;51.740;19.498;2023-01-24T15:48:06;45.95;;;15.05;;
45136;SDS011;30894;51.740;19.498;2023-01-24T15:50:58;31.70;;;12.88;;
45136;SDS011;30894;51.740;19.498;2023-01-24T15:53:41;35.90;;;14.35;;
45136;SDS011;30894;51.740;19.498;2023-01-24T15:56:16;44.10;;;16.05;;
45136;SDS011;30894;51.740;19.498;2023-01-24T15:58:54;38.38;;;14.02;;
45136;SDS011;30894;51.740;19.498;2023-01-24T16:01:20;39.17;;;14.95;;
45136;SDS011;30894;51.740;19.498;2023-01-24T16:03:59;42.40;;;15.20;;
45136;SDS011;30894;51.740;19.498;2023-01-24T16:06:41;44.03;;;14.68;;
45136;SDS011;30894;51.740;19.498;2023-01-24T16:09:14;50.10;;;19.65;;
45136;SDS011;30894;51.740;19.498;2023-01-24T16:11:45;45.65;;;17.52;;
45136;SDS011;30894;51.740;19.498;2023-01-24T16:14:20;40.83;;;14.50;;
45136;SDS011;30894;51.740;19.498;2023-01-24T16:16:48;41.00;;;16.42;;
45136;SDS011;30894;51.740;19.498;2023-01-24T16:19:19;40.53;;;14.20;;
45136;SDS011;30894;51.740;19.498;2023-01-24T16:21:48;48.70;;;15.52;;
45136;SDS011;30894;51.740;19.498;2023-01-24T16:24:17;37.47;;;12.93;;
45136;SDS011;30894;51.740;19.498;2023-01-24T16:27:04;37.80;;;13.02;;
45136;SDS011;30894;51.740;19.498;2023-01-24T16:29:45;45.13;;;15.45;;
45136;SDS011;30894;51.740;19.498;2023-01-24T16:34:58;36.03;;;15.07;;
45136;SDS011;30894;51.740;19.498;2023-01-24T16:37:34;42.22;;;14.48;;
45136;SDS011;30894;51.740;19.498;2023-01-24T16:40:09;59.63;;;19.70;;
45136;SDS011;30894;51.740;19.498;2023-01-24T16:46:17;56.67;;;18.23;;
45136;SDS011;30894;51.740;19.498;2023-01-24T16:48:51;50.58;;;16.60;;
45136;SDS011;30894;51.740;19.498;2023-01-24T16:51:27;49.70;;;16.95;;
45136;SDS011;30894;51.740;19.498;2023-01-24T16:53:54;46.47;;;16.67;;
45136;SDS011;30894;51.740;19.498;2023-01-24T16:56:25;48.05;;;19.75;;
45136;SDS011;30894;51.740;19.498;2023-01-24T16:59:00;56.17;;;17.48;;
45136;SDS011;30894;51.740;19.498;2023-01-24T17:04:26;58.25;;;19.05;;
45136;SDS011;30894;51.740;19.498;2023-01-24T17:06:53;45.97;;;16.27;;
45136;SDS011;30894;51.740;19.498;2023-01-24T17:09:27;40.47;;;14.35;;
45136;SDS011;30894;51.740;19.498;2023-01-24T17:11:54;40.83;;;15.75;;
45136;SDS011;30894;51.740;19.498;2023-01-24T17:14:34;38.22;;;14.30;;
45136;SDS011;30894;51.740;19.498;2023-01-24T17:17:03;42.13;;;15.27;;
45136;SDS011;30894;51.740;19.498;2023-01-24T17:19:32;41.72;;;13.50;;
45136;SDS011;30894;51.740;19.498;2023-01-24T17:22:02;41.97;;;14.75;;
45136;SDS011;30894;51.740;19.498;2023-01-24T17:24:34;41.88;;;15.25;;
45136;SDS011;30894;51.740;19.498;2023-01-24T17:27:03;40.35;;;14.35;;
45136;SDS011;30894;51.740;19.498;2023-01-24T17:29:31;43.20;;;15.88;;
45136;SDS011;30894;51.740;19.498;2023-01-24T17:31:58;47.70;;;16.48;;
45136;SDS011;30894;51.740;19.498;2023-01-24T17:34:24;53.85;;;15.30;;
45136;SDS011;30894;51.740;19.498;2023-01-24T17:36:51;41.08;;;14.10;;
45136;SDS011;30894;51.740;19.498;2023-01-24T17:39:18;49.50;;;16.80;;